sensor_id;sensor_type;location;lat;lon;timestamp;pressure;altitude;pressure_sealevel;temperature;humidity
49461;BME280;35355;49.198;-0.368;2023-01-31T00:00:40;102405.34;;;2.61;86.58
49461;BME280;35355;49.198;-0.368;2023-01-31T00:03:06;102404.19;;;2.63;86.39
49461;BME280;35355;49.198;-0.368;2023-01-31T00:05:31;102409.06;;;2.68;86.01
49461;BME280;35355;49.198;-0.368;2023-01-31T00:07:56;102407.19;;;2.69;86.52
49461;BME280;35355;49.198;-0.368;2023-01-31T00:10:22;102418.84;;;2.69;86.07
49461;BME280;35355;49.198;-0.368;2023-01-31T00:12:47;102409.41;;;2.65;86.11
49461;BME280;35355;49.198;-0.368;2023-01-31T00:15:12;102422.41;;;2.61;86.12
49461;BME280;35355;49.198;-0.368;2023-01-31T00:17:40;102408.91;;;2.53;86.08
49461;BME280;35355;49.198;-0.368;2023-01-31T00:20:06;102410.06;;;2.51;85.78
49461;BME280;35355;49.198;-0.368;2023-01-31T00:22:32;102399.97;;;2.44;86.24
49461;BME280;35355;49.198;-0.368;2023-01-31T00:24:58;102396.59;;;2.42;85.83
49461;BME280;35355;49.198;-0.368;2023-01-31T00:27:23;102388.16;;;2.37;85.49
49461;BME280;35355;49.198;-0.368;2023-01-31T00:29:48;102388.31;;;2.36;86.11
49461;BME280;35355;49.198;-0.368;2023-01-31T00:32:14;102383.25;;;2.33;86.05
49461;BME280;35355;49.198;-0.368;2023-01-31T00:34:39;102388.31;;;2.36;86.19
49461;BME280;35355;49.198;-0.368;2023-01-31T00:37:04;102375.19;;;2.33;86.16
49461;BME280;35355;49.198;-0.368;2023-01-31T00:39:30;102360.72;;;2.34;86.34
49461;BME280;35355;49.198;-0.368;2023-01-31T00:41:55;102367.94;;;2.41;86.70
49461;BME280;35355;49.198;-0.368;2023-01-31T00:44:20;102368.44;;;2.45;86.51
49461;BME280;35355;49.198;-0.368;2023-01-31T00:46:46;102375.53;;;2.46;86.15
49461;BME280;35355;49.198;-0.368;2023-01-31T00:49:11;102367.97;;;2.50;86.53
49461;BME280;35355;49.198;-0.368;2023-01-31T00:51:36;102374.84;;;2.52;86.54
49461;BME280;35355;49.198;-0.368;2023-01-31T00:54:02;102366.94;;;2.51;86.49
49461;BME280;35355;49.198;-0.368;2023-01-31T00:56:28;102369.47;;;2.52;86.30
49461;BME280;35355;49.198;-0.368;2023-01-31T00:58:53;102368.81;;;2.50;86.34
49461;BME280;35355;49.198;-0.368;2023-01-31T01:01:26;102372.66;;;2.48;85.99
49461;BME280;35355;49.198;-0.368;2023-01-31T01:03:53;102371.47;;;2.42;86.28
49461;BME280;35355;49.198;-0.368;2023-01-31T01:06:20;102366.25;;;2.40;86.31
49461;BME280;35355;49.198;-0.368;2023-01-31T01:08:46;102363.72;;;2.39;86.40
49461;BME280;35355;49.198;-0.368;2023-01-31T01:11:18;102361.03;;;2.39;86.13
49461;BME280;35355;49.198;-0.368;2023-01-31T01:13:43;102355.81;;;2.37;86.14
49461;BME280;35355;49.198;-0.368;2023-01-31T01:16:18;102349.94;;;2.34;85.72
49461;BME280;35355;49.198;-0.368;2023-01-31T01:18:44;102352.97;;;2.31;86.43
49461;BME280;35355;49.198;-0.368;2023-01-31T01:21:15;102359.69;;;2.26;85.90
49461;BME280;35355;49.198;-0.368;2023-01-31T01:23:41;102351.25;;;2.21;86.22
49461;BME280;35355;49.198;-0.368;2023-01-31T01:26:36;102358.84;;;2.18;85.80
49461;BME280;35355;49.198;-0.368;2023-01-31T01:29:02;102351.41;;;2.12;85.99
49461;BME280;35355;49.198;-0.368;2023-01-31T01:31:28;102359.84;;;2.08;86.06
49461;BME280;35355;49.198;-0.368;2023-01-31T01:33:58;102361.66;;;2.08;85.99
49461;BME280;35355;49.198;-0.368;2023-01-31T01:36:24;102361.50;;;2.09;86.61
49461;BME280;35355;49.198;-0.368;2023-01-31T01:38:50;102366.53;;;2.13;86.51
49461;BME280;35355;49.198;-0.368;2023-01-31T01:41:16;102364.38;;;2.16;86.67
49461;BME280;35355;49.198;-0.368;2023-01-31T01:46:17;102360.84;;;2.16;86.19
49461;BME280;35355;49.198;-0.368;2023-01-31T01:48:47;102359.81;;;2.17;86.72
49461;BME280;35355;49.198;-0.368;2023-01-31T01:51:14;102354.28;;;2.18;86.75
49461;BME280;35355;49.198;-0.368;2023-01-31T01:53:44;102347.88;;;2.19;86.36
49461;BME280;35355;49.198;-0.368;2023-01-31T01:56:16;102332.22;;;2.15;86.20
49461;BME280;35355;49.198;-0.368;2023-01-31T01:59:00;102346.53;;;2.15;86.30
49461;BME280;35355;49.198;-0.368;2023-01-31T02:01:30;102348.56;;;2.13;86.12
49461;BME280;35355;49.198;-0.368;2023-01-31T02:03:57;102346.69;;;2.05;86.76
49461;BME280;35355;49.198;-0.368;2023-01-31T02:06:23;102350.72;;;2.01;86.46
49461;BME280;35355;49.198;-0.368;2023-01-31T02:08:49;102342.81;;;2.00;86.57
49461;BME280;35355;49.198;-0.368;2023-01-31T02:11:22;102344.81;;;1.98;86.49
49461;BME280;35355;49.198;-0.368;2023-01-31T02:13:51;102343.47;;;1.93;86.35
49461;BME280;35355;49.198;-0.368;2023-01-31T02:16:18;102341.78;;;1.92;86.16
49461;BME280;35355;49.198;-0.368;2023-01-31T02:18:44;102336.72;;;1.89;86.72
49461;BME280;35355;49.198;-0.368;2023-01-31T02:24:27;102339.75;;;1.95;86.83
49461;BME280;35355;49.198;-0.368;2023-01-31T02:40:01;102358.63;;;2.11;86.60
49461;BME280;35355;49.198;-0.368;2023-01-31T02:45:47;102350.56;;;2.03;86.48
49461;BME280;35355;49.198;-0.368;2023-01-31T02:53:27;102336.75;;;2.06;86.40
49461;BME280;35355;49.198;-0.368;2023-01-31T02:56:02;102350.88;;;2.08;86.28
49461;BME280;35355;49.198;-0.368;2023-01-31T02:59:03;102354.09;;;2.12;86.69
49461;BME280;35355;49.198;-0.368;2023-01-31T03:01:34;102359.00;;;2.16;86.72
49461;BME280;35355;49.198;-0.368;2023-01-31T03:04:05;102355.47;;;2.24;86.85
49461;BME280;35355;49.198;-0.368;2023-01-31T03:09:06;102349.94;;;2.34;86.62
49461;BME280;35355;49.198;-0.368;2023-01-31T03:16:54;102353.47;;;2.42;86.69
49461;BME280;35355;49.198;-0.368;2023-01-31T03:19:55;102359.03;;;2.49;86.61
49461;BME280;35355;49.198;-0.368;2023-01-31T03:22:28;102360.72;;;2.50;86.10
49461;BME280;35355;49.198;-0.368;2023-01-31T03:24:55;102356.50;;;2.48;86.24
49461;BME280;35355;49.198;-0.368;2023-01-31T03:27:23;102352.28;;;2.45;86.32
49461;BME280;35355;49.198;-0.368;2023-01-31T03:29:50;102347.56;;;2.39;86.37
49461;BME280;35355;49.198;-0.368;2023-01-31T03:32:23;102344.00;;;2.30;85.80
49461;BME280;35355;49.198;-0.368;2023-01-31T03:34:50;102348.06;;;2.26;86.13
49461;BME280;35355;49.198;-0.368;2023-01-31T03:37:30;102360.69;;;2.25;86.58
49461;BME280;35355;49.198;-0.368;2023-01-31T03:40:11;102353.97;;;2.30;86.28
49461;BME280;35355;49.198;-0.368;2023-01-31T03:42:50;102347.91;;;2.36;86.41
49461;BME280;35355;49.198;-0.368;2023-01-31T03:45:45;102343.53;;;2.43;86.69
49461;BME280;35355;49.198;-0.368;2023-01-31T03:48:13;102348.25;;;2.49;86.56
49461;BME280;35355;49.198;-0.368;2023-01-31T03:51:03;102350.44;;;2.54;85.99
49461;BME280;35355;49.198;-0.368;2023-01-31T03:53:38;102347.91;;;2.60;86.43
49461;BME280;35355;49.198;-0.368;2023-01-31T03:56:28;102350.75;;;2.67;86.50
49461;BME280;35355;49.198;-0.368;2023-01-31T03:59:00;102348.41;;;2.72;86.42
49461;BME280;35355;49.198;-0.368;2023-01-31T04:01:30;102353.94;;;2.79;86.45
49461;BME280;35355;49.198;-0.368;2023-01-31T04:06:21;102342.81;;;2.90;86.56
49461;BME280;35355;49.198;-0.368;2023-01-31T04:08:47;102346.22;;;2.92;86.61
49461;BME280;35355;49.198;-0.368;2023-01-31T04:11:13;102356.66;;;2.95;86.44
49461;BME280;35355;49.198;-0.368;2023-01-31T04:13:40;102353.59;;;2.98;86.55
49461;BME280;35355;49.198;-0.368;2023-01-31T04:16:06;102343.47;;;3.01;86.68
49461;BME280;35355;49.198;-0.368;2023-01-31T04:18:31;102352.09;;;3.04;86.40
49461;BME280;35355;49.198;-0.368;2023-01-31T04:20:56;102351.91;;;3.06;86.04
49461;BME280;35355;49.198;-0.368;2023-01-31T04:23:22;102352.22;;;3.11;86.44
49461;BME280;35355;49.198;-0.368;2023-01-31T04:25:49;102350.19;;;3.13;86.24
49461;BME280;35355;49.198;-0.368;2023-01-31T04:28:16;102349.00;;;3.15;86.24
49461;BME280;35355;49.198;-0.368;2023-01-31T04:30:42;102351.00;;;3.22;86.33
49461;BME280;35355;49.198;-0.368;2023-01-31T04:33:07;102355.91;;;3.26;86.29
49461;BME280;35355;49.198;-0.368;2023-01-31T04:35:32;102341.38;;;3.27;86.30
49461;BME280;35355;49.198;-0.368;2023-01-31T04:37:59;102352.34;;;3.34;86.12
49461;BME280;35355;49.198;-0.368;2023-01-31T04:40:24;102338.31;;;3.39;86.23
49461;BME280;35355;49.198;-0.368;2023-01-31T04:42:49;102341.50;;;3.42;86.25
49461;BME280;35355;49.198;-0.368;2023-01-31T04:45:15;102340.13;;;3.46;86.10
49461;BME280;35355;49.198;-0.368;2023-01-31T04:47:41;102339.31;;;3.46;86.01
49461;BME280;35355;49.198;-0.368;2023-01-31T04:50:07;102339.97;;;3.48;86.08
49461;BME280;35355;49.198;-0.368;2023-01-31T04:52:32;102351.63;;;3.48;86.04
49461;BME280;35355;49.198;-0.368;2023-01-31T04:54:57;102342.00;;;3.46;86.12
49461;BME280;35355;49.198;-0.368;2023-01-31T04:57:23;102340.97;;;3.47;86.26
49461;BME280;35355;49.198;-0.368;2023-01-31T04:59:48;102331.56;;;3.43;86.34
49461;BME280;35355;49.198;-0.368;2023-01-31T05:02:14;102346.88;;;3.50;86.31
49461;BME280;35355;49.198;-0.368;2023-01-31T05:04:40;102344.00;;;3.52;85.87
49461;BME280;35355;49.198;-0.368;2023-01-31T05:07:05;102340.28;;;3.53;86.09
49461;BME280;35355;49.198;-0.368;2023-01-31T05:09:30;102340.28;;;3.53;85.64
49461;BME280;35355;49.198;-0.368;2023-01-31T05:11:56;102328.50;;;3.46;86.19
49461;BME280;35355;49.198;-0.368;2023-01-31T05:14:21;102335.25;;;3.50;85.86
49461;BME280;35355;49.198;-0.368;2023-01-31T05:16:47;102329.31;;;3.55;86.38
49461;BME280;35355;49.198;-0.368;2023-01-31T05:19:14;102336.03;;;3.59;86.14
49461;BME280;35355;49.198;-0.368;2023-01-31T05:21:39;102333.81;;;3.62;86.33
49461;BME280;35355;49.198;-0.368;2023-01-31T05:24:34;102334.13;;;3.67;86.12
49461;BME280;35355;49.198;-0.368;2023-01-31T05:27:01;102332.75;;;3.72;85.98
49461;BME280;35355;49.198;-0.368;2023-01-31T05:29:28;102341.53;;;3.74;86.09
49461;BME280;35355;49.198;-0.368;2023-01-31T05:52:01;102348.19;;;3.07;86.19
49461;BME280;35355;49.198;-0.368;2023-01-31T05:54:26;102347.16;;;3.08;86.43
49461;BME280;35355;49.198;-0.368;2023-01-31T05:56:51;102344.47;;;3.16;86.45
49461;BME280;35355;49.198;-0.368;2023-01-31T05:59:17;102342.56;;;3.25;86.68
49461;BME280;35355;49.198;-0.368;2023-01-31T06:01:42;102345.06;;;3.34;86.76
49461;BME280;35355;49.198;-0.368;2023-01-31T06:04:08;102338.97;;;3.41;86.62
49461;BME280;35355;49.198;-0.368;2023-01-31T06:06:34;102336.44;;;3.47;86.07
49461;BME280;35355;49.198;-0.368;2023-01-31T06:08:59;102336.19;;;3.57;86.43
49461;BME280;35355;49.198;-0.368;2023-01-31T06:11:24;102330.13;;;3.63;86.48
49461;BME280;35355;49.198;-0.368;2023-01-31T06:13:50;102318.97;;;3.66;86.31
49461;BME280;35355;49.198;-0.368;2023-01-31T06:16:15;102329.69;;;3.75;86.53
49461;BME280;35355;49.198;-0.368;2023-01-31T06:18:40;102333.75;;;3.79;86.42
49461;BME280;35355;49.198;-0.368;2023-01-31T06:21:06;102320.88;;;3.81;86.34
49461;BME280;35355;49.198;-0.368;2023-01-31T06:23:33;102326.78;;;3.84;86.54
49461;BME280;35355;49.198;-0.368;2023-01-31T06:25:58;102337.06;;;3.89;86.37
49461;BME280;35355;49.198;-0.368;2023-01-31T06:28:24;102333.34;;;3.90;86.59
49461;BME280;35355;49.198;-0.368;2023-01-31T06:30:49;102328.41;;;3.94;86.15
49461;BME280;35355;49.198;-0.368;2023-01-31T06:33:15;102332.28;;;3.99;86.22
49461;BME280;35355;49.198;-0.368;2023-01-31T06:35:40;102340.00;;;4.02;86.17
49461;BME280;35355;49.198;-0.368;2023-01-31T06:38:06;102341.16;;;4.08;86.19
49461;BME280;35355;49.198;-0.368;2023-01-31T06:40:32;102335.59;;;4.10;86.67
49461;BME280;35355;49.198;-0.368;2023-01-31T06:42:58;102331.00;;;4.10;86.52
49461;BME280;35355;49.198;-0.368;2023-01-31T06:45:24;102336.56;;;4.17;86.27
49461;BME280;35355;49.198;-0.368;2023-01-31T06:47:49;102338.06;;;4.19;86.05
49461;BME280;35355;49.198;-0.368;2023-01-31T06:50:15;102330.41;;;4.23;86.54
49461;BME280;35355;49.198;-0.368;2023-01-31T06:52:40;102325.66;;;4.25;86.50
49461;BME280;35355;49.198;-0.368;2023-01-31T06:55:06;102334.25;;;4.29;86.33
49461;BME280;35355;49.198;-0.368;2023-01-31T06:57:32;102334.09;;;4.30;85.95
49461;BME280;35355;49.198;-0.368;2023-01-31T06:59:57;102333.91;;;4.32;86.08
49461;BME280;35355;49.198;-0.368;2023-01-31T07:02:23;102331.84;;;4.34;86.13
49461;BME280;35355;49.198;-0.368;2023-01-31T07:04:48;102338.13;;;4.34;86.02
49461;BME280;35355;49.198;-0.368;2023-01-31T07:07:13;102346.22;;;4.34;85.89
49461;BME280;35355;49.198;-0.368;2023-01-31T07:09:39;102338.28;;;4.33;85.86
49461;BME280;35355;49.198;-0.368;2023-01-31T07:12:04;102333.06;;;4.31;85.71
49461;BME280;35355;49.198;-0.368;2023-01-31T07:14:30;102344.91;;;4.30;86.08
49461;BME280;35355;49.198;-0.368;2023-01-31T07:16:55;102337.34;;;4.26;86.44
49461;BME280;35355;49.198;-0.368;2023-01-31T07:19:20;102331.25;;;4.24;85.55
49461;BME280;35355;49.198;-0.368;2023-01-31T07:21:46;102328.53;;;4.24;86.06
49461;BME280;35355;49.198;-0.368;2023-01-31T07:24:16;102325.00;;;4.23;86.53
49461;BME280;35355;49.198;-0.368;2023-01-31T07:26:41;102322.31;;;4.23;85.89
49461;BME280;35355;49.198;-0.368;2023-01-31T07:29:07;102318.59;;;4.24;86.38
49461;BME280;35355;49.198;-0.368;2023-01-31T07:31:32;102311.50;;;4.23;86.27
49461;BME280;35355;49.198;-0.368;2023-01-31T07:33:58;102319.59;;;4.23;86.20
49461;BME280;35355;49.198;-0.368;2023-01-31T07:36:24;102328.72;;;4.22;86.08
49461;BME280;35355;49.198;-0.368;2023-01-31T07:38:54;102328.72;;;4.22;86.49
49461;BME280;35355;49.198;-0.368;2023-01-31T07:41:20;102322.03;;;4.18;86.21
49461;BME280;35355;49.198;-0.368;2023-01-31T07:43:45;102337.56;;;4.16;86.35
49461;BME280;35355;49.198;-0.368;2023-01-31T07:46:11;102326.81;;;4.08;86.26
49461;BME280;35355;49.198;-0.368;2023-01-31T07:48:37;102322.78;;;4.03;86.26
49461;BME280;35355;49.198;-0.368;2023-01-31T07:51:03;102338.31;;;4.01;86.17
49461;BME280;35355;49.198;-0.368;2023-01-31T07:53:30;102345.13;;;3.97;86.66
49461;BME280;35355;49.198;-0.368;2023-01-31T07:56:13;102345.66;;;3.93;86.36
49461;BME280;35355;49.198;-0.368;2023-01-31T07:58:39;102358.00;;;3.87;86.64
49461;BME280;35355;49.198;-0.368;2023-01-31T08:01:06;102359.03;;;3.86;86.54
49461;BME280;35355;49.198;-0.368;2023-01-31T08:03:50;102361.72;;;3.86;86.52
49461;BME280;35355;49.198;-0.368;2023-01-31T08:06:16;102355.97;;;3.89;86.69
49461;BME280;35355;49.198;-0.368;2023-01-31T08:08:43;102355.13;;;3.89;86.91
49461;BME280;35355;49.198;-0.368;2023-01-31T08:11:08;102348.50;;;3.91;86.92
49461;BME280;35355;49.198;-0.368;2023-01-31T08:13:34;102348.50;;;3.91;86.61
49461;BME280;35355;49.198;-0.368;2023-01-31T08:16:02;102362.34;;;3.96;87.06
49461;BME280;35355;49.198;-0.368;2023-01-31T08:18:27;102362.00;;;3.99;87.03
49461;BME280;35355;49.198;-0.368;2023-01-31T08:20:53;102362.59;;;4.10;86.97
49461;BME280;35355;49.198;-0.368;2023-01-31T08:23:18;102362.22;;;4.21;86.95
49461;BME280;35355;49.198;-0.368;2023-01-31T08:25:44;102355.53;;;4.32;87.48
49461;BME280;35355;49.198;-0.368;2023-01-31T08:28:09;102354.25;;;4.43;87.11
49461;BME280;35355;49.198;-0.368;2023-01-31T08:30:40;102354.66;;;4.54;86.75
49461;BME280;35355;49.198;-0.368;2023-01-31T08:33:06;102346.31;;;4.64;86.85
49461;BME280;35355;49.198;-0.368;2023-01-31T08:35:31;102358.38;;;4.77;87.02
49461;BME280;35355;49.198;-0.368;2023-01-31T08:37:56;102362.69;;;4.86;86.60
49461;BME280;35355;49.198;-0.368;2023-01-31T08:40:22;102361.41;;;4.97;86.91
49461;BME280;35355;49.198;-0.368;2023-01-31T08:42:57;102362.81;;;5.07;86.89
49461;BME280;35355;49.198;-0.368;2023-01-31T08:45:25;102366.47;;;5.15;86.20
49461;BME280;35355;49.198;-0.368;2023-01-31T08:47:54;102373.56;;;5.16;86.86
49461;BME280;35355;49.198;-0.368;2023-01-31T08:50:20;102374.56;;;5.15;86.12
49461;BME280;35355;49.198;-0.368;2023-01-31T08:52:46;102372.63;;;5.08;86.54
49461;BME280;35355;49.198;-0.368;2023-01-31T08:55:11;102362.53;;;5.02;86.06
49461;BME280;35355;49.198;-0.368;2023-01-31T08:57:39;102351.72;;;5.02;86.46
49461;BME280;35355;49.198;-0.368;2023-01-31T09:00:07;102356.44;;;5.00;86.87
49461;BME280;35355;49.198;-0.368;2023-01-31T09:02:32;102360.19;;;4.99;86.35
49461;BME280;35355;49.198;-0.368;2023-01-31T09:04:58;102354.78;;;4.99;86.75
49461;BME280;35355;49.198;-0.368;2023-01-31T09:07:23;102356.56;;;5.07;86.93
49461;BME280;35355;49.198;-0.368;2023-01-31T09:09:48;102349.19;;;5.16;86.75
49461;BME280;35355;49.198;-0.368;2023-01-31T09:12:14;102351.06;;;5.30;86.41
49461;BME280;35355;49.198;-0.368;2023-01-31T09:14:39;102353.47;;;5.40;85.79
49461;BME280;35355;49.198;-0.368;2023-01-31T09:17:04;102351.16;;;5.52;86.80
49461;BME280;35355;49.198;-0.368;2023-01-31T09:19:32;102353.09;;;5.58;85.99
49461;BME280;35355;49.198;-0.368;2023-01-31T09:21:57;102357.03;;;5.70;86.34
49461;BME280;35355;49.198;-0.368;2023-01-31T09:24:23;102370.81;;;5.75;86.28
49461;BME280;35355;49.198;-0.368;2023-01-31T09:26:48;102368.59;;;5.79;86.12
49461;BME280;35355;49.198;-0.368;2023-01-31T09:29:14;102375.13;;;5.85;85.63
49461;BME280;35355;49.198;-0.368;2023-01-31T09:31:39;102373.31;;;5.92;85.55
49461;BME280;35355;49.198;-0.368;2023-01-31T09:34:04;102378.09;;;6.05;86.08
49461;BME280;35355;49.198;-0.368;2023-01-31T09:36:30;102380.50;;;6.14;85.89
49461;BME280;35355;49.198;-0.368;2023-01-31T09:38:56;102372.41;;;6.21;85.48
49461;BME280;35355;49.198;-0.368;2023-01-31T09:41:32;102376.25;;;6.27;85.50
49461;BME280;35355;49.198;-0.368;2023-01-31T09:44:22;102376.53;;;6.32;85.53
49461;BME280;35355;49.198;-0.368;2023-01-31T09:47:15;102383.88;;;6.38;85.28
49461;BME280;35355;49.198;-0.368;2023-01-31T09:49:51;102386.44;;;6.46;86.29
49461;BME280;35355;49.198;-0.368;2023-01-31T09:52:18;102389.25;;;6.53;86.25
49461;BME280;35355;49.198;-0.368;2023-01-31T09:54:45;102396.00;;;6.64;85.51
49461;BME280;35355;49.198;-0.368;2023-01-31T10:07:42;102391.97;;;7.03;84.27
49461;BME280;35355;49.198;-0.368;2023-01-31T10:10:32;102392.38;;;7.00;84.68
49461;BME280;35355;49.198;-0.368;2023-01-31T10:13:03;102399.44;;;7.01;84.40
49461;BME280;35355;49.198;-0.368;2023-01-31T10:15:45;102401.75;;;7.04;85.03
49461;BME280;35355;49.198;-0.368;2023-01-31T10:20:55;102406.16;;;7.05;84.34
49461;BME280;35355;49.198;-0.368;2023-01-31T10:23:34;102410.31;;;7.01;84.54
49461;BME280;35355;49.198;-0.368;2023-01-31T10:26:29;102417.19;;;6.97;84.53
49461;BME280;35355;49.198;-0.368;2023-01-31T10:29:28;102409.53;;;7.07;85.17
49461;BME280;35355;49.198;-0.368;2023-01-31T10:31:58;102407.13;;;7.19;85.20
49461;BME280;35355;49.198;-0.368;2023-01-31T10:34:59;102412.59;;;7.26;85.19
49461;BME280;35355;49.198;-0.368;2023-01-31T10:40:15;102422.22;;;7.28;85.42
49461;BME280;35355;49.198;-0.368;2023-01-31T10:42:48;102425.63;;;7.37;84.98
49461;BME280;35355;49.198;-0.368;2023-01-31T10:45:22;102415.44;;;7.46;85.01
49461;BME280;35355;49.198;-0.368;2023-01-31T10:47:56;102413.81;;;7.51;85.00
49461;BME280;35355;49.198;-0.368;2023-01-31T10:56:04;102401.94;;;7.59;84.00
49461;BME280;35355;49.198;-0.368;2023-01-31T10:58:31;102402.75;;;7.60;84.05
49461;BME280;35355;49.198;-0.368;2023-01-31T11:00:57;102402.38;;;7.63;84.12
49461;BME280;35355;49.198;-0.368;2023-01-31T11:03:23;102394.66;;;7.66;83.95
49461;BME280;35355;49.198;-0.368;2023-01-31T11:05:52;102403.25;;;7.70;84.01
49461;BME280;35355;49.198;-0.368;2023-01-31T11:08:39;102395.91;;;7.64;83.94
49461;BME280;35355;49.198;-0.368;2023-01-31T11:11:11;102400.94;;;7.67;83.86
49461;BME280;35355;49.198;-0.368;2023-01-31T11:13:37;102390.06;;;7.67;83.94
49461;BME280;35355;49.198;-0.368;2023-01-31T11:16:06;102395.72;;;7.72;83.90
49461;BME280;35355;49.198;-0.368;2023-01-31T11:18:43;102389.91;;;7.75;84.19
49461;BME280;35355;49.198;-0.368;2023-01-31T11:21:19;102389.50;;;7.78;83.96
49461;BME280;35355;49.198;-0.368;2023-01-31T11:23:45;102386.38;;;7.81;84.22
49461;BME280;35355;49.198;-0.368;2023-01-31T11:26:10;102379.50;;;7.85;84.18
49461;BME280;35355;49.198;-0.368;2023-01-31T11:28:40;102382.63;;;7.89;84.22
49461;BME280;35355;49.198;-0.368;2023-01-31T11:31:15;102379.91;;;7.96;83.81
49461;BME280;35355;49.198;-0.368;2023-01-31T11:33:42;102379.53;;;7.99;83.91
49461;BME280;35355;49.198;-0.368;2023-01-31T11:36:15;102367.19;;;8.03;83.87
49461;BME280;35355;49.198;-0.368;2023-01-31T11:38:40;102364.91;;;8.06;84.01
49461;BME280;35355;49.198;-0.368;2023-01-31T11:41:32;102365.78;;;8.14;83.96
49461;BME280;35355;49.198;-0.368;2023-01-31T11:44:17;102345.69;;;8.21;83.86
49461;BME280;35355;49.198;-0.368;2023-01-31T11:46:50;102350.75;;;8.31;83.48
49461;BME280;35355;49.198;-0.368;2023-01-31T11:49:33;102344.88;;;8.41;83.72
49461;BME280;35355;49.198;-0.368;2023-01-31T11:52:14;102344.91;;;8.54;83.70
49461;BME280;35355;49.198;-0.368;2023-01-31T11:54:46;102349.13;;;8.64;83.71
49461;BME280;35355;49.198;-0.368;2023-01-31T11:57:21;102333.81;;;8.69;83.21
49461;BME280;35355;49.198;-0.368;2023-01-31T11:59:50;102336.75;;;8.68;82.99
49461;BME280;35355;49.198;-0.368;2023-01-31T12:04:49;102342.41;;;8.59;82.78
49461;BME280;35355;49.198;-0.368;2023-01-31T12:07:21;102326.50;;;8.56;82.97
49461;BME280;35355;49.198;-0.368;2023-01-31T12:09:47;102323.16;;;8.54;82.77
49461;BME280;35355;49.198;-0.368;2023-01-31T12:12:27;102329.44;;;8.55;83.15
49461;BME280;35355;49.198;-0.368;2023-01-31T12:14:58;102317.69;;;8.54;83.20
49461;BME280;35355;49.198;-0.368;2023-01-31T12:17:27;102299.72;;;8.53;83.25
49461;BME280;35355;49.198;-0.368;2023-01-31T12:20:22;102301.81;;;8.58;83.49
49461;BME280;35355;49.198;-0.368;2023-01-31T12:25:40;102308.47;;;8.62;83.39
49461;BME280;35355;49.198;-0.368;2023-01-31T12:36:53;102277.06;;;8.66;83.10
49461;BME280;35355;49.198;-0.368;2023-01-31T12:39:31;102276.25;;;8.66;83.18
49461;BME280;35355;49.198;-0.368;2023-01-31T12:42:18;102278.53;;;8.69;83.35
49461;BME280;35355;49.198;-0.368;2023-01-31T12:51:23;102290.84;;;8.91;83.20
49461;BME280;35355;49.198;-0.368;2023-01-31T12:54:01;102284.94;;;9.08;83.25
49461;BME280;35355;49.198;-0.368;2023-01-31T13:02:02;102285.22;;;9.58;82.63
49461;BME280;35355;49.198;-0.368;2023-01-31T13:04:48;102281.78;;;9.70;82.58
49461;BME280;35355;49.198;-0.368;2023-01-31T13:07:33;102285.94;;;9.79;82.25
49461;BME280;35355;49.198;-0.368;2023-01-31T13:10:04;102284.19;;;9.91;81.66
49461;BME280;35355;49.198;-0.368;2023-01-31T13:12:33;102274.06;;;9.98;81.60
49461;BME280;35355;49.198;-0.368;2023-01-31T13:15:06;102276.94;;;10.10;81.57
49461;BME280;35355;49.198;-0.368;2023-01-31T13:17:39;102280.69;;;10.16;80.77
49461;BME280;35355;49.198;-0.368;2023-01-31T13:20:28;102280.69;;;10.16;80.64
49461;BME280;35355;49.198;-0.368;2023-01-31T13:22:59;102279.44;;;10.12;80.75
49461;BME280;35355;49.198;-0.368;2023-01-31T13:30:49;102274.59;;;10.14;80.58
49461;BME280;35355;49.198;-0.368;2023-01-31T13:38:35;102265.13;;;10.16;81.46
49461;BME280;35355;49.198;-0.368;2023-01-31T13:41:03;102268.53;;;10.12;80.86
49461;BME280;35355;49.198;-0.368;2023-01-31T13:43:29;102257.66;;;10.05;80.34
49461;BME280;35355;49.198;-0.368;2023-01-31T13:46:02;102261.91;;;10.01;80.61
49461;BME280;35355;49.198;-0.368;2023-01-31T13:48:35;102258.97;;;9.96;80.83
49461;BME280;35355;49.198;-0.368;2023-01-31T13:51:06;102257.38;;;9.81;81.03
49461;BME280;35355;49.198;-0.368;2023-01-31T13:53:43;102271.72;;;9.70;81.05
49461;BME280;35355;49.198;-0.368;2023-01-31T13:56:14;102255.00;;;9.60;80.95
49461;BME280;35355;49.198;-0.368;2023-01-31T13:58:42;102262.78;;;9.56;81.00
49461;BME280;35355;49.198;-0.368;2023-01-31T14:01:14;102274.31;;;9.52;81.16
49461;BME280;35355;49.198;-0.368;2023-01-31T14:21:50;102251.00;;;9.10;82.15
49461;BME280;35355;49.198;-0.368;2023-01-31T14:24:24;102257.53;;;9.09;81.76
49461;BME280;35355;49.198;-0.368;2023-01-31T14:27:20;102257.31;;;9.11;82.04
49461;BME280;35355;49.198;-0.368;2023-01-31T14:29:47;102255.19;;;9.13;81.98
49461;BME280;35355;49.198;-0.368;2023-01-31T14:32:42;102249.75;;;9.20;82.20
49461;BME280;35355;49.198;-0.368;2023-01-31T14:48:26;102247.41;;;9.23;82.64
49461;BME280;35355;49.198;-0.368;2023-01-31T14:51:11;102246.81;;;9.21;83.00
49461;BME280;35355;49.198;-0.368;2023-01-31T14:58:45;102245.56;;;9.17;83.32
49461;BME280;35355;49.198;-0.368;2023-01-31T15:01:14;102235.47;;;9.18;83.62
49461;BME280;35355;49.198;-0.368;2023-01-31T15:03:54;102237.38;;;9.17;83.80
49461;BME280;35355;49.198;-0.368;2023-01-31T15:06:31;102236.31;;;9.18;83.83
49461;BME280;35355;49.198;-0.368;2023-01-31T15:11:49;102230.69;;;9.20;84.21
49461;BME280;35355;49.198;-0.368;2023-01-31T15:14:30;102235.03;;;9.21;83.74
49461;BME280;35355;49.198;-0.368;2023-01-31T15:17:13;102235.25;;;9.26;83.98
49461;BME280;35355;49.198;-0.368;2023-01-31T15:19:45;102227.06;;;9.26;83.98
49461;BME280;35355;49.198;-0.368;2023-01-31T15:22:12;102226.22;;;9.25;84.13
49461;BME280;35355;49.198;-0.368;2023-01-31T15:24:44;102231.88;;;9.24;84.23
49461;BME280;35355;49.198;-0.368;2023-01-31T15:30:12;102235.47;;;9.24;84.17
49461;BME280;35355;49.198;-0.368;2023-01-31T15:32:48;102234.00;;;9.22;84.33
49461;BME280;35355;49.198;-0.368;2023-01-31T15:38:43;102235.91;;;9.21;84.29
49461;BME280;35355;49.198;-0.368;2023-01-31T15:43:43;102238.84;;;9.20;84.65
49461;BME280;35355;49.198;-0.368;2023-01-31T15:48:41;102239.25;;;9.17;84.63
49461;BME280;35355;49.198;-0.368;2023-01-31T15:51:10;102243.44;;;9.19;84.95